Time;durP1;ratioP1;P1;durP2;ratioP2;P2;SDS_P1;SDS_P2;PMS_P1;PMS_P2;Temp;Humidity;BMP_temperature;BMP_pressure;BME280_temperature;BME280_humidity;BME280_pressure;Samples;Min_cycle;Max_cycle;Signal;HPM_P1;HPM_P2
2023/07/18 00:02:09;;;;;;;6.13;2.25;;;;;;;;;;5011344;28;20084;-75
2023/07/18 00:04:35;;;;;;;9.75;3.05;;;;;;;;;;5011299;28;20045;-74
2023/07/18 00:07:01;;;;;;;11.05;2.35;;;;;;;;;;5011324;28;20034;-74
2023/07/18 00:09:27;;;;;;;8.48;2.13;;;;;;;;;;4993947;28;20463;-74
2023/07/18 00:11:53;;;;;;;8.80;2.10;;;;;;;;;;5011082;28;20030;-75
2023/07/18 00:14:19;;;;;;;7.10;2.10;;;;;;;;;;5010805;28;20074;-73
2023/07/18 00:16:45;;;;;;;6.95;2.50;;;;;;;;;;5010700;28;20109;-75
2023/07/18 00:19:12;;;;;;;5.20;2.00;;;;;;;;;;5011090;28;20104;-76
2023/07/18 00:21:41;;;;;;;6.35;1.90;;;;;;;;;;5010696;28;20041;-75
2023/07/18 00:24:07;;;;;;;6.93;1.85;;;;;;;;;;5011021;28;20041;-75
2023/07/18 00:26:34;;;;;;;7.32;2.42;;;;;;;;;;4992826;28;20030;-77
2023/07/18 00:29:00;;;;;;;9.18;2.60;;;;;;;;;;5010228;28;20112;-76
2023/07/18 00:31:27;;;;;;;9.35;2.50;;;;;;;;;;5010549;28;20464;-76
2023/07/18 00:33:53;;;;;;;8.80;2.17;;;;;;;;;;5010431;28;20088;-76
2023/07/18 00:36:20;;;;;;;9.10;2.58;;;;;;;;;;5010158;28;20030;-75
2023/07/18 00:38:46;;;;;;;8.85;2.20;;;;;;;;;;5010615;28;20037;-75
2023/07/18 00:41:13;;;;;;;8.43;2.20;;;;;;;;;;5010309;28;20025;-75
2023/07/18 00:43:39;;;;;;;8.20;2.35;;;;;;;;;;5010189;28;20124;-75
2023/07/18 00:46:05;;;;;;;9.18;2.75;;;;;;;;;;4992300;28;20026;-75
2023/07/18 00:48:34;;;;;;;7.90;2.65;;;;;;;;;;5010262;28;20045;-77
2023/07/18 00:51:01;;;;;;;7.68;2.35;;;;;;;;;;5010237;28;20057;-75
2023/07/18 00:53:30;;;;;;;6.60;2.63;;;;;;;;;;5011218;28;20026;-75
2023/07/18 00:55:56;;;;;;;9.68;2.92;;;;;;;;;;5010612;28;20531;-75
2023/07/18 00:58:23;;;;;;;9.13;2.53;;;;;;;;;;5010213;28;20030;-74
2023/07/18 01:00:49;;;;;;;7.07;2.40;;;;;;;;;;5010051;28;20074;-75
2023/07/18 01:03:16;;;;;;;11.70;2.90;;;;;;;;;;5009394;28;20033;-76
2023/07/18 01:05:42;;;;;;;6.18;2.28;;;;;;;;;;5010440;28;20025;-76
2023/07/18 01:08:08;;;;;;;13.20;2.80;;;;;;;;;;5010189;28;20030;-75
2023/07/18 01:10:34;;;;;;;9.15;2.55;;;;;;;;;;4992436;28;20029;-75
2023/07/18 01:13:01;;;;;;;10.68;3.15;;;;;;;;;;5011909;28;20050;-75
2023/07/18 01:15:29;;;;;;;4.95;2.40;;;;;;;;;;5011063;28;20084;-74
2023/07/18 01:17:55;;;;;;;7.18;2.75;;;;;;;;;;5009498;28;20072;-75
2023/07/18 01:20:23;;;;;;;9.20;2.63;;;;;;;;;;5010002;28;20033;-75
2023/07/18 01:22:50;;;;;;;10.35;2.60;;;;;;;;;;5009545;28;20384;-74
2023/07/18 01:25:17;;;;;;;7.80;2.53;;;;;;;;;;5009721;28;20032;-75
2023/07/18 01:27:43;;;;;;;8.65;2.60;;;;;;;;;;4992570;28;20109;-75
2023/07/18 01:30:10;;;;;;;7.15;2.58;;;;;;;;;;5009429;28;20032;-75
2023/07/18 01:32:36;;;;;;;8.10;3.42;;;;;;;;;;5009548;28;20025;-74
2023/07/18 01:35:05;;;;;;;7.68;2.80;;;;;;;;;;5009613;28;20096;-75
2023/07/18 01:37:31;;;;;;;11.35;2.83;;;;;;;;;;5010208;28;20029;-75
2023/07/18 01:39:57;;;;;;;5.70;2.20;;;;;;;;;;5009640;28;20045;-75
2023/07/18 01:42:23;;;;;;;6.88;3.00;;;;;;;;;;4991962;28;20120;-74
2023/07/18 01:44:49;;;;;;;6.40;2.28;;;;;;;;;;5009104;28;20038;-76
2023/07/18 01:47:15;;;;;;;8.07;2.45;;;;;;;;;;5009877;28;20033;-75
2023/07/18 01:49:41;;;;;;;10.85;2.70;;;;;;;;;;5010174;28;20373;-75
2023/07/18 01:52:08;;;;;;;5.68;2.42;;;;;;;;;;5009210;28;20062;-75
2023/07/18 01:54:34;;;;;;;6.20;2.42;;;;;;;;;;5009464;28;20458;-75
2023/07/18 01:57:00;;;;;;;7.95;3.00;;;;;;;;;;5009559;28;20030;-76
2023/07/18 01:59:26;;;;;;;9.00;2.88;;;;;;;;;;5009040;28;20092;-75
2023/07/18 02:01:52;;;;;;;7.65;2.35;;;;;;;;;;4991454;28;20480;-75
2023/07/18 02:04:18;;;;;;;8.45;2.83;;;;;;;;;;5009426;28;20033;-75
2023/07/18 02:06:44;;;;;;;9.25;3.30;;;;;;;;;;5008856;28;20034;-75
2023/07/18 02:09:11;;;;;;;6.57;2.40;;;;;;;;;;5008966;28;20380;-75
2023/07/18 02:11:37;;;;;;;6.43;2.42;;;;;;;;;;5009092;28;20539;-75
2023/07/18 02:14:03;;;;;;;12.27;3.28;;;;;;;;;;5009072;28;20492;-75
2023/07/18 02:16:29;;;;;;;10.52;2.83;;;;;;;;;;5012919;28;20043;-75
2023/07/18 02:18:56;;;;;;;8.73;2.97;;;;;;;;;;5012934;28;20125;-75
2023/07/18 02:21:22;;;;;;;8.20;2.38;;;;;;;;;;4995849;28;20106;-74
2023/07/18 02:23:49;;;;;;;9.10;2.78;;;;;;;;;;5012874;28;20061;-76
2023/07/18 02:26:15;;;;;;;8.10;2.60;;;;;;;;;;4995060;28;20067;-74
2023/07/18 02:28:41;;;;;;;6.55;2.22;;;;;;;;;;5012975;28;20030;-74
2023/07/18 02:31:07;;;;;;;7.00;2.90;;;;;;;;;;5012850;28;20033;-75
2023/07/18 02:33:33;;;;;;;6.30;2.25;;;;;;;;;;5012745;28;20396;-74
2023/07/18 02:35:59;;;;;;;8.23;2.70;;;;;;;;;;5013115;28;20117;-76
2023/07/18 02:38:25;;;;;;;10.65;3.25;;;;;;;;;;4994896;28;20052;-76
2023/07/18 02:40:55;;;;;;;7.30;2.22;;;;;;;;;;5012506;28;20076;-75
2023/07/18 02:43:24;;;;;;;5.28;2.33;;;;;;;;;;5012792;28;20383;-75
2023/07/18 02:45:50;;;;;;;9.07;2.70;;;;;;;;;;5012209;28;20033;-76
2023/07/18 02:48:15;;;;;;;8.70;2.78;;;;;;;;;;5012579;28;20076;-76
2023/07/18 02:50:41;;;;;;;5.72;2.45;;;;;;;;;;5012256;28;20491;-75
2023/07/18 02:53:08;;;;;;;8.52;2.80;;;;;;;;;;5011870;28;20112;-75
2023/07/18 02:55:34;;;;;;;8.93;2.72;;;;;;;;;;4994604;28;20037;-75
2023/07/18 02:58:00;;;;;;;5.20;2.28;;;;;;;;;;5012544;28;20026;-75
2023/07/18 03:00:26;;;;;;;5.55;2.03;;;;;;;;;;4994461;28;20408;-76
2023/07/18 03:02:53;;;;;;;8.15;2.70;;;;;;;;;;5012484;28;20034;-75
2023/07/18 03:05:19;;;;;;;8.38;2.70;;;;;;;;;;5012137;28;20033;-75
2023/07/18 03:07:49;;;;;;;6.30;2.75;;;;;;;;;;5012151;28;20029;-75
2023/07/18 03:10:15;;;;;;;6.07;2.97;;;;;;;;;;5012254;28;20057;-76
2023/07/18 03:12:41;;;;;;;10.65;2.47;;;;;;;;;;5012007;28;20032;-74
2023/07/18 03:15:10;;;;;;;8.98;3.38;;;;;;;;;;5011880;28;20089;-76
2023/07/18 03:17:37;;;;;;;8.80;2.97;;;;;;;;;;5012153;28;20465;-75
2023/07/18 03:20:16;;;;;;;6.90;2.97;;;;;;;;;;4996173;28;20468;-75
2023/07/18 03:22:42;;;;;;;10.00;3.15;;;;;;;;;;5012399;28;20192;-75
2023/07/18 03:25:08;;;;;;;7.35;3.03;;;;;;;;;;5012346;28;20029;-76
2023/07/18 03:27:34;;;;;;;12.35;3.70;;;;;;;;;;5011833;28;20038;-75
2023/07/18 03:30:00;;;;;;;8.02;3.53;;;;;;;;;;5011870;28;20026;-76
2023/07/18 03:32:26;;;;;;;8.13;3.17;;;;;;;;;;5011383;28;20117;-75
2023/07/18 03:34:52;;;;;;;7.65;3.38;;;;;;;;;;5011528;28;20472;-75
2023/07/18 03:37:18;;;;;;;8.30;2.60;;;;;;;;;;5011635;28;20080;-76
2023/07/18 03:39:44;;;;;;;12.73;3.90;;;;;;;;;;5011586;28;20041;-75
2023/07/18 03:42:10;;;;;;;13.43;3.20;;;;;;;;;;5011581;28;20025;-75
2023/07/18 03:44:36;;;;;;;7.22;3.30;;;;;;;;;;5011759;28;20082;-76
2023/07/18 03:47:02;;;;;;;9.02;2.72;;;;;;;;;;4994665;28;20026;-76
2023/07/18 03:49:29;;;;;;;9.13;3.55;;;;;;;;;;5012249;28;20022;-75
2023/07/18 03:51:55;;;;;;;8.65;3.15;;;;;;;;;;5014458;28;20034;-76
2023/07/18 03:54:21;;;;;;;8.07;2.83;;;;;;;;;;5011898;28;20882;-76
2023/07/18 03:56:47;;;;;;;9.10;3.10;;;;;;;;;;5012002;28;20033;-76
2023/07/18 03:59:13;;;;;;;7.80;3.92;;;;;;;;;;5011708;28;20033;-75
2023/07/18 04:01:42;;;;;;;14.43;4.75;;;;;;;;;;5011334;28;20112;-75
2023/07/18 04:04:09;;;;;;;9.13;4.07;;;;;;;;;;5011330;28;20049;-76
2023/07/18 04:06:35;;;;;;;14.15;4.60;;;;;;;;;;5010982;28;20060;-75
2023/07/18 04:09:01;;;;;;;9.98;4.18;;;;;;;;;;5011108;28;20057;-75
2023/07/18 04:11:27;;;;;;;10.82;4.07;;;;;;;;;;5011658;28;20056;-76
2023/07/18 04:13:53;;;;;;;9.63;3.67;;;;;;;;;;5010884;28;20181;-75
2023/07/18 04:16:19;;;;;;;9.38;3.92;;;;;;;;;;5011232;28;20032;-75
2023/07/18 04:18:45;;;;;;;8.70;3.70;;;;;;;;;;4993464;28;20032;-75
2023/07/18 04:21:11;;;;;;;9.80;4.43;;;;;;;;;;4993382;28;20041;-75
2023/07/18 04:23:38;;;;;;;9.32;3.70;;;;;;;;;;5010321;28;20072;-75
2023/07/18 04:26:09;;;;;;;8.10;3.85;;;;;;;;;;5011441;28;20022;-74
2023/07/18 04:28:36;;;;;;;15.98;4.53;;;;;;;;;;5010413;28;20084;-74
2023/07/18 04:31:02;;;;;;;11.23;4.72;;;;;;;;;;5010374;28;20550;-75
2023/07/18 04:33:28;;;;;;;11.38;4.82;;;;;;;;;;5010294;28;20034;-75
2023/07/18 04:35:54;;;;;;;9.45;4.03;;;;;;;;;;5010150;28;20030;-75
2023/07/18 04:38:20;;;;;;;10.93;4.35;;;;;;;;;;5010028;28;20061;-75
2023/07/18 04:40:46;;;;;;;9.85;4.07;;;;;;;;;;5010611;28;20036;-75
2023/07/18 04:43:14;;;;;;;12.95;5.22;;;;;;;;;;5010711;28;20053;-75
2023/07/18 04:45:44;;;;;;;9.30;4.35;;;;;;;;;;4992839;28;20508;-75
2023/07/18 04:48:10;;;;;;;;;;;;;;;;;;4992940;28;20380;-75
2023/07/18 04:50:36;;;;;;;10.77;5.63;;;;;;;;;;5010096;28;19912;-75
2023/07/18 04:53:02;;;;;;;9.80;4.40;;;;;;;;;;5010487;28;20033;-75
2023/07/18 04:55:28;;;;;;;8.02;4.28;;;;;;;;;;5009953;28;20037;-75
2023/07/18 04:57:54;;;;;;;11.10;4.40;;;;;;;;;;5009893;28;20022;-75
2023/07/18 05:00:20;;;;;;;9.43;4.05;;;;;;;;;;5009934;28;20706;-75
2023/07/18 05:02:49;;;;;;;9.15;4.30;;;;;;;;;;5010392;28;20069;-74
2023/07/18 05:05:17;;;;;;;10.90;4.43;;;;;;;;;;5010080;28;20117;-74
2023/07/18 05:07:44;;;;;;;10.80;5.13;;;;;;;;;;5010389;28;20026;-75
2023/07/18 05:10:10;;;;;;;8.52;4.90;;;;;;;;;;4992268;28;20065;-77
2023/07/18 05:12:36;;;;;;;14.07;5.20;;;;;;;;;;5009686;28;20062;-78
2023/07/18 05:15:02;;;;;;;9.50;4.70;;;;;;;;;;5009960;28;20562;-75
2023/07/18 05:17:28;;;;;;;9.25;4.88;;;;;;;;;;5009560;28;20022;-76
2023/07/18 05:19:57;;;;;;;10.25;4.75;;;;;;;;;;5009538;28;20033;-75
2023/07/18 05:22:23;;;;;;;10.30;4.30;;;;;;;;;;5010398;28;20103;-75
2023/07/18 05:24:49;;;;;;;11.38;5.65;;;;;;;;;;5010365;28;20050;-76
2023/07/18 05:27:16;;;;;;;9.68;5.07;;;;;;;;;;5010106;28;20144;-77
2023/07/18 05:29:42;;;;;;;9.18;4.90;;;;;;;;;;4992290;28;20041;-76
2023/07/18 05:32:11;;;;;;;12.23;5.15;;;;;;;;;;5009898;28;20030;-78
2023/07/18 05:34:37;;;;;;;9.95;5.43;;;;;;;;;;4992111;28;20116;-75
2023/07/18 05:37:04;;;;;;;10.60;4.78;;;;;;;;;;4992428;28;20030;-76
2023/07/18 05:39:30;;;;;;;9.57;4.80;;;;;;;;;;5009901;28;20033;-76
2023/07/18 05:41:56;;;;;;;9.45;4.80;;;;;;;;;;5009859;28;20351;-75
2023/07/18 05:44:22;;;;;;;10.10;4.55;;;;;;;;;;5009168;28;20114;-76
2023/07/18 05:46:48;;;;;;;10.00;5.13;;;;;;;;;;5009376;28;20030;-74
2023/07/18 05:49:14;;;;;;;10.52;5.05;;;;;;;;;;5009466;28;20022;-76
2023/07/18 05:51:40;;;;;;;11.07;5.35;;;;;;;;;;5009460;28;20033;-76
2023/07/18 05:54:06;;;;;;;10.07;4.63;;;;;;;;;;5009900;28;20112;-77
2023/07/18 05:56:33;;;;;;;9.75;5.28;;;;;;;;;;5009314;28;20097;-73
2023/07/18 05:59:05;;;;;;;7.03;4.10;;;;;;;;;;4993303;28;20033;-75
2023/07/18 06:01:31;;;;;;;11.43;5.30;;;;;;;;;;5010795;28;20036;-76
2023/07/18 06:03:57;;;;;;;9.18;4.55;;;;;;;;;;5011723;28;20037;-77
2023/07/18 06:06:24;;;;;;;11.13;5.22;;;;;;;;;;5010368;28;20373;-76
2023/07/18 06:08:51;;;;;;;9.77;4.60;;;;;;;;;;5009561;28;20117;-76
2023/07/18 06:11:18;;;;;;;7.93;3.67;;;;;;;;;;5009357;28;20033;-76
2023/07/18 06:13:44;;;;;;;14.70;5.00;;;;;;;;;;4992076;28;20659;-75
2023/07/18 06:16:10;;;;;;;9.35;5.20;;;;;;;;;;5009549;28;20034;-76
2023/07/18 06:18:37;;;;;;;10.95;5.10;;;;;;;;;;5010062;28;20026;-76
2023/07/18 06:21:03;;;;;;;8.70;4.72;;;;;;;;;;5009995;28;20022;-79
2023/07/18 06:23:30;;;;;;;10.20;5.05;;;;;;;;;;5010258;28;20060;-78
2023/07/18 06:25:56;;;;;;;11.20;5.80;;;;;;;;;;4992193;28;20030;-78
2023/07/18 06:28:22;;;;;;;9.15;4.72;;;;;;;;;;5008183;28;20036;-78
2023/07/18 06:30:51;;;;;;;10.00;5.80;;;;;;;;;;5009133;28;20404;-79
2023/07/18 06:33:19;;;;;;;7.90;4.80;;;;;;;;;;5009161;28;20041;-77
2023/07/18 06:35:51;;;;;;;13.40;5.95;;;;;;;;;;5009138;28;20117;-75
2023/07/18 06:38:17;;;;;;;8.63;4.45;;;;;;;;;;5008650;28;20035;-76
2023/07/18 06:40:46;;;;;;;9.07;5.05;;;;;;;;;;5009246;28;20030;-77
2023/07/18 06:43:12;;;;;;;11.45;4.93;;;;;;;;;;5008798;28;20147;-72
2023/07/18 06:45:38;;;;;;;8.80;5.05;;;;;;;;;;5008979;28;20492;-77
2023/07/18 06:48:05;;;;;;;11.48;5.70;;;;;;;;;;5008761;28;20032;-76
2023/07/18 06:50:31;;;;;;;11.60;6.55;;;;;;;;;;5008708;28;20026;-76
2023/07/18 06:52:57;;;;;;;10.05;4.40;;;;;;;;;;4990556;28;20117;-77
2023/07/18 06:55:23;;;;;;;8.10;4.80;;;;;;;;;;5009036;28;20125;-76
2023/07/18 06:57:52;;;;;;;13.80;5.78;;;;;;;;;;5008713;28;20026;-76
2023/07/18 07:00:20;;;;;;;10.02;5.22;;;;;;;;;;5008950;28;20113;-77
2023/07/18 07:02:46;;;;;;;10.98;4.78;;;;;;;;;;5012458;28;20420;-77
2023/07/18 07:05:12;;;;;;;11.73;5.22;;;;;;;;;;5012051;28;20022;-77
2023/07/18 07:07:38;;;;;;;12.25;5.80;;;;;;;;;;5012801;28;20132;-77
2023/07/18 07:10:04;;;;;;;8.40;3.42;;;;;;;;;;5011894;28;20041;-75
2023/07/18 07:12:33;;;;;;;11.20;4.85;;;;;;;;;;5011740;28;20026;-77
2023/07/18 07:15:00;;;;;;;7.13;4.10;;;;;;;;;;4994484;28;20033;-75
2023/07/18 07:17:26;;;;;;;9.63;4.18;;;;;;;;;;5012022;28;20018;-77
2023/07/18 07:19:52;;;;;;;9.65;4.15;;;;;;;;;;4978130;28;20081;-76
2023/07/18 07:22:18;;;;;;;12.65;4.20;;;;;;;;;;5011227;28;20396;-74
2023/07/18 07:24:44;;;;;;;11.07;3.97;;;;;;;;;;5012190;28;20033;-77
2023/07/18 07:27:10;;;;;;;8.20;4.00;;;;;;;;;;5010990;28;20117;-75
2023/07/18 07:29:41;;;;;;;14.52;5.00;;;;;;;;;;5011860;28;20025;-77
2023/07/18 07:32:07;;;;;;;10.98;4.93;;;;;;;;;;5011622;28;20049;-76
2023/07/18 07:34:33;;;;;;;8.75;4.05;;;;;;;;;;5012249;28;20546;-77
2023/07/18 07:36:59;;;;;;;9.95;4.03;;;;;;;;;;5011320;28;20026;-77
2023/07/18 07:39:25;;;;;;;12.60;4.88;;;;;;;;;;4994329;28;20022;-74
2023/07/18 07:41:51;;;;;;;7.13;3.22;;;;;;;;;;5012294;28;20106;-75
2023/07/18 07:44:17;;;;;;;8.65;4.80;;;;;;;;;;5011415;28;20045;-77
2023/07/18 07:46:44;;;;;;;9.10;4.95;;;;;;;;;;5011280;28;20539;-77
2023/07/18 07:49:11;;;;;;;7.50;3.55;;;;;;;;;;5011631;28;20030;-76
2023/07/18 07:51:37;;;;;;;6.93;3.88;;;;;;;;;;4993904;28;20045;-77
2023/07/18 07:54:03;;;;;;;9.23;3.85;;;;;;;;;;5011953;28;20543;-75
2023/07/18 07:56:29;;;;;;;8.73;4.25;;;;;;;;;;5012438;28;20113;-78
2023/07/18 07:58:55;;;;;;;10.55;3.22;;;;;;;;;;5012192;28;20117;-75
2023/07/18 08:01:21;;;;;;;9.38;3.78;;;;;;;;;;5011681;28;20649;-77
2023/07/18 08:03:47;;;;;;;7.00;3.22;;;;;;;;;;5012146;28;20034;-77
2023/07/18 08:06:14;;;;;;;8.70;3.90;;;;;;;;;;5012781;28;20022;-78
2023/07/18 08:08:40;;;;;;;9.52;3.67;;;;;;;;;;5016152;28;20026;-76
2023/07/18 08:11:08;;;;;;;6.00;2.95;;;;;;;;;;5018304;28;20468;-78
2023/07/18 08:13:37;;;;;;;3.58;1.65;;;;;;;;;;5013924;28;20113;-77
2023/07/18 08:16:05;;;;;;;7.50;3.35;;;;;;;;;;4997022;28;20479;-74
2023/07/18 08:18:31;;;;;;;7.85;3.00;;;;;;;;;;5011237;28;20503;-75
2023/07/18 08:20:57;;;;;;;6.95;2.85;;;;;;;;;;4993646;28;20022;-74
2023/07/18 08:23:23;;;;;;;8.80;3.35;;;;;;;;;;5010823;28;20064;-72
2023/07/18 08:25:49;;;;;;;7.35;2.90;;;;;;;;;;5010780;28;20026;-73
2023/07/18 08:28:15;;;;;;;8.85;3.05;;;;;;;;;;4993643;28;20030;-74
2023/07/18 08:30:41;;;;;;;9.27;3.05;;;;;;;;;;5010605;28;20029;-74
2023/07/18 08:33:09;;;;;;;7.63;2.63;;;;;;;;;;5010658;28;20037;-73
2023/07/18 08:35:36;;;;;;;6.88;2.60;;;;;;;;;;5010772;28;20041;-72
2023/07/18 08:38:02;;;;;;;6.30;2.40;;;;;;;;;;4993541;28;20110;-73
2023/07/18 08:40:29;;;;;;;6.63;2.20;;;;;;;;;;5010577;28;20508;-73
2023/07/18 08:42:55;;;;;;;7.28;3.00;;;;;;;;;;5011384;28;20101;-75
2023/07/18 08:45:23;;;;;;;8.35;2.78;;;;;;;;;;5011182;28;20475;-72
2023/07/18 08:47:55;;;;;;;5.57;1.80;;;;;;;;;;5010304;28;20088;-71
2023/07/18 08:50:24;;;;;;;5.20;2.00;;;;;;;;;;5010175;28;20096;-72
2023/07/18 08:52:50;;;;;;;5.93;1.85;;;;;;;;;;5010399;28;20049;-71
2023/07/18 08:55:16;;;;;;;7.05;1.63;;;;;;;;;;5010549;28;20033;-72
2023/07/18 08:57:43;;;;;;;5.57;1.75;;;;;;;;;;5010456;28;20017;-74
2023/07/18 09:00:11;;;;;;;7.82;2.13;;;;;;;;;;5009905;28;20022;-73
2023/07/18 09:02:40;;;;;;;3.67;1.33;;;;;;;;;;5010214;28;20030;-74
2023/07/18 09:05:07;;;;;;;5.65;1.40;;;;;;;;;;5009987;28;20033;-73
2023/07/18 09:07:36;;;;;;;5.28;1.17;;;;;;;;;;5010094;28;20076;-74
2023/07/18 09:10:03;;;;;;;3.47;1.13;;;;;;;;;;5003079;28;20057;-72
2023/07/18 09:12:31;;;;;;;4.35;1.00;;;;;;;;;;4995241;28;20034;-74
2023/07/18 09:14:57;;;;;;;4.38;1.63;;;;;;;;;;4990338;28;20121;-74
2023/07/18 09:17:23;;;;;;;5.28;1.10;;;;;;;;;;5006703;28;20137;-73
2023/07/18 09:19:50;;;;;;;4.65;1.27;;;;;;;;;;5009542;28;20531;-75
2023/07/18 09:22:17;;;;;;;3.90;1.05;;;;;;;;;;5009925;28;20018;-74
2023/07/18 09:24:46;;;;;;;2.53;1.02;;;;;;;;;;4991258;28;20076;-73
2023/07/18 09:27:16;;;;;;;3.33;0.83;;;;;;;;;;5008795;28;20109;-72
2023/07/18 09:29:45;;;;;;;3.55;0.93;;;;;;;;;;5004260;28;20033;-73
2023/07/18 09:32:18;;;;;;;2.92;1.00;;;;;;;;;;5009387;28;20041;-74
2023/07/18 09:34:54;;;;;;;3.33;0.80;;;;;;;;;;4991419;28;20494;-73
2023/07/18 09:37:23;;;;;;;4.10;1.23;;;;;;;;;;5009499;28;20029;-72
2023/07/18 09:39:50;;;;;;;3.75;1.00;;;;;;;;;;5009094;28;20026;-73
2023/07/18 09:42:19;;;;;;;4.13;1.00;;;;;;;;;;5009385;28;20020;-74
2023/07/18 09:44:48;;;;;;;3.72;0.90;;;;;;;;;;5009279;28;20088;-74
2023/07/18 09:47:14;;;;;;;4.35;1.38;;;;;;;;;;5009164;28;20037;-75
2023/07/18 09:49:41;;;;;;;2.13;0.85;;;;;;;;;;5009342;28;20049;-75
2023/07/18 09:52:07;;;;;;;3.50;1.20;;;;;;;;;;5009314;28;20095;-76
2023/07/18 09:54:34;;;;;;;2.92;0.80;;;;;;;;;;5009177;28;20128;-72
2023/07/18 09:57:03;;;;;;;2.28;0.80;;;;;;;;;;5009635;28;20022;-75
2023/07/18 09:59:29;;;;;;;2.25;0.90;;;;;;;;;;5009174;28;20034;-75
2023/07/18 10:01:56;;;;;;;2.63;0.80;;;;;;;;;;5009430;28;20033;-75
2023/07/18 10:04:23;;;;;;;5.88;1.33;;;;;;;;;;5008684;28;20480;-75
2023/07/18 10:06:50;;;;;;;3.05;0.95;;;;;;;;;;5007913;28;20073;-71
2023/07/18 10:09:16;;;;;;;3.03;1.08;;;;;;;;;;5003351;28;20095;-75
2023/07/18 10:11:58;;;;;;;6.20;1.73;;;;;;;;;;4991456;28;20030;-75
2023/07/18 10:14:44;;;;;;;2.70;0.93;;;;;;;;;;4991373;28;20030;-75
2023/07/18 10:17:24;;;;;;;5.10;1.38;;;;;;;;;;4968794;28;20042;-73
2023/07/18 10:19:50;;;;;;;4.28;0.90;;;;;;;;;;5008682;28;20029;-74
2023/07/18 10:22:28;;;;;;;3.22;0.82;;;;;;;;;;5008247;28;20468;-74
2023/07/18 10:24:58;;;;;;;7.18;1.25;;;;;;;;;;5007748;28;20108;-74
2023/07/18 10:27:34;;;;;;;3.78;0.93;;;;;;;;;;5009498;28;20030;-74
2023/07/18 10:30:19;;;;;;;4.45;1.02;;;;;;;;;;5007945;28;20463;-74
2023/07/18 10:32:51;;;;;;;4.68;1.33;;;;;;;;;;5007151;28;20045;-73
2023/07/18 10:35:18;;;;;;;2.78;0.80;;;;;;;;;;5006527;28;20044;-74
2023/07/18 10:37:46;;;;;;;4.82;1.45;;;;;;;;;;5011345;28;20092;-75
2023/07/18 10:40:29;;;;;;;3.95;0.75;;;;;;;;;;5011436;28;20034;-75
2023/07/18 10:42:55;;;;;;;5.80;1.40;;;;;;;;;;5011014;28;20025;-73
2023/07/18 10:45:21;;;;;;;2.95;1.00;;;;;;;;;;5011400;28;20045;-74
2023/07/18 10:47:47;;;;;;;1.40;0.50;;;;;;;;;;5013292;28;20048;-75
2023/07/18 10:50:17;;;;;;;4.82;1.20;;;;;;;;;;5012930;28;20375;-75
2023/07/18 10:52:43;;;;;;;4.18;1.20;;;;;;;;;;5013193;28;20022;-75
2023/07/18 10:55:09;;;;;;;2.78;0.98;;;;;;;;;;5012333;28;20042;-75
2023/07/18 10:57:37;;;;;;;2.80;0.90;;;;;;;;;;5011844;28;20044;-76
2023/07/18 11:00:05;;;;;;;5.88;1.23;;;;;;;;;;5011548;28;20036;-76
2023/07/18 11:02:35;;;;;;;3.30;0.93;;;;;;;;;;5012788;28;20088;-75
2023/07/18 11:05:06;;;;;;;1.73;0.50;;;;;;;;;;5011543;28;20025;-75
2023/07/18 11:07:33;;;;;;;3.42;0.68;;;;;;;;;;5012173;28;20100;-76
2023/07/18 11:09:59;;;;;;;3.55;1.42;;;;;;;;;;4993614;28;20046;-77
2023/07/18 11:12:26;;;;;;;1.33;0.40;;;;;;;;;;5011489;28;20064;-76
2023/07/18 11:14:52;;;;;;;2.97;0.68;;;;;;;;;;5010799;28;20038;-77
2023/07/18 11:17:18;;;;;;;4.80;0.77;;;;;;;;;;5010644;28;20026;-76
2023/07/18 11:19:45;;;;;;;2.65;0.60;;;;;;;;;;5010579;28;20029;-75
2023/07/18 11:22:13;;;;;;;3.45;0.82;;;;;;;;;;5010033;28;20022;-76
2023/07/18 11:24:39;;;;;;;2.55;0.65;;;;;;;;;;5010319;28;20084;-74
2023/07/18 11:27:13;;;;;;;3.75;0.80;;;;;;;;;;5010514;28;20038;-75
2023/07/18 11:29:39;;;;;;;6.18;1.73;;;;;;;;;;5010563;28;20033;-75
2023/07/18 11:32:05;;;;;;;2.45;0.70;;;;;;;;;;5010488;28;20443;-75
2023/07/18 11:34:31;;;;;;;2.17;0.63;;;;;;;;;;5010373;28;20034;-74
2023/07/18 11:36:57;;;;;;;2.78;0.68;;;;;;;;;;5010436;28;20116;-75
2023/07/18 11:39:24;;;;;;;2.00;0.65;;;;;;;;;;5010972;28;20068;-77
2023/07/18 11:41:51;;;;;;;3.10;1.08;;;;;;;;;;5010322;28;20045;-75
2023/07/18 11:44:25;;;;;;;2.90;0.90;;;;;;;;;;5009335;28;20053;-74
2023/07/18 11:46:52;;;;;;;1.90;0.70;;;;;;;;;;5008819;28;20036;-75
2023/07/18 11:49:31;;;;;;;4.60;1.20;;;;;;;;;;4992989;28;20116;-73
2023/07/18 11:52:00;;;;;;;4.85;1.27;;;;;;;;;;5009985;28;20026;-74
2023/07/18 11:54:29;;;;;;;4.97;1.30;;;;;;;;;;5010288;28;20101;-73
2023/07/18 11:56:55;;;;;;;2.50;0.88;;;;;;;;;;5010243;28;20033;-74
2023/07/18 11:59:21;;;;;;;2.72;0.90;;;;;;;;;;5010176;28;20030;-75
2023/07/18 12:01:47;;;;;;;6.22;1.17;;;;;;;;;;5009758;28;20096;-74
2023/07/18 12:04:14;;;;;;;3.88;0.70;;;;;;;;;;5010269;28;20057;-73
2023/07/18 12:06:41;;;;;;;1.75;0.70;;;;;;;;;;5010282;28;20030;-72
2023/07/18 12:09:07;;;;;;;3.92;0.77;;;;;;;;;;4992493;28;20072;-74
2023/07/18 12:11:33;;;;;;;2.85;0.85;;;;;;;;;;5010313;28;20048;-74
2023/07/18 12:14:02;;;;;;;5.35;1.52;;;;;;;;;;5009587;28;20215;-74
2023/07/18 12:16:28;;;;;;;4.75;0.93;;;;;;;;;;5010290;28;20029;-74
2023/07/18 12:18:56;;;;;;;3.72;0.90;;;;;;;;;;5010097;28;20481;-74
2023/07/18 12:21:25;;;;;;;3.85;1.27;;;;;;;;;;5009758;28;20026;-74
2023/07/18 12:23:51;;;;;;;3.90;0.80;;;;;;;;;;5009899;28;20034;-75
2023/07/18 12:26:17;;;;;;;4.63;1.02;;;;;;;;;;5009309;28;20026;-74
2023/07/18 12:28:45;;;;;;;2.58;0.90;;;;;;;;;;5010196;28;20022;-75
2023/07/18 12:31:11;;;;;;;6.78;1.17;;;;;;;;;;5009592;28;20053;-73
2023/07/18 12:33:38;;;;;;;4.65;0.80;;;;;;;;;;5009269;28;20025;-73
2023/07/18 12:36:05;;;;;;;3.30;0.70;;;;;;;;;;5008850;28;20092;-72
2023/07/18 12:38:31;;;;;;;4.63;0.95;;;;;;;;;;5009447;28;20080;-73
2023/07/18 12:40:57;;;;;;;3.03;0.77;;;;;;;;;;5009796;28;20021;-72
2023/07/18 12:43:23;;;;;;;3.92;0.90;;;;;;;;;;5009480;28;20033;-74
2023/07/18 12:45:49;;;;;;;2.55;0.90;;;;;;;;;;5009193;28;20506;-73
2023/07/18 12:48:15;;;;;;;4.03;1.00;;;;;;;;;;5009718;28;20382;-73
2023/07/18 12:50:43;;;;;;;3.60;0.60;;;;;;;;;;5009425;28;20029;-72
2023/07/18 12:53:09;;;;;;;2.72;0.77;;;;;;;;;;5009411;28;20018;-73
2023/07/18 12:55:35;;;;;;;3.75;0.85;;;;;;;;;;5009087;28;20060;-74
2023/07/18 12:58:01;;;;;;;5.57;1.10;;;;;;;;;;5009096;28;20041;-74
2023/07/18 13:00:27;;;;;;;1.42;0.60;;;;;;;;;;5009260;28;20030;-73
2023/07/18 13:02:54;;;;;;;2.33;0.57;;;;;;;;;;5009566;28;20026;-72
2023/07/18 13:05:20;;;;;;;2.92;0.60;;;;;;;;;;5009794;28;20036;-72
2023/07/18 13:07:46;;;;;;;4.40;1.00;;;;;;;;;;5009207;28;20036;-73
2023/07/18 13:10:12;;;;;;;2.90;0.88;;;;;;;;;;5008479;28;20488;-72
2023/07/18 13:12:38;;;;;;;1.70;0.60;;;;;;;;;;5010138;28;20033;-74
2023/07/18 13:15:05;;;;;;;2.58;0.93;;;;;;;;;;5010199;28;20049;-72
2023/07/18 13:17:31;;;;;;;2.58;0.77;;;;;;;;;;4991556;28;20030;-72
2023/07/18 13:19:59;;;;;;;2.38;0.70;;;;;;;;;;5009831;28;20105;-72
2023/07/18 13:22:25;;;;;;;2.40;0.50;;;;;;;;;;5009887;28;20029;-73
2023/07/18 13:24:51;;;;;;;3.63;0.60;;;;;;;;;;5008913;28;20103;-73
2023/07/18 13:27:17;;;;;;;2.70;0.65;;;;;;;;;;4991815;28;20076;-73
2023/07/18 13:29:43;;;;;;;3.58;0.60;;;;;;;;;;5009847;28;20101;-73
2023/07/18 13:32:09;;;;;;;1.65;0.47;;;;;;;;;;5009027;28;20556;-73
2023/07/18 13:34:36;;;;;;;2.05;0.50;;;;;;;;;;5009495;28;20045;-72
2023/07/18 13:37:02;;;;;;;1.60;0.52;;;;;;;;;;5009056;28;20104;-73
2023/07/18 13:39:28;;;;;;;2.80;0.68;;;;;;;;;;5009121;28;20647;-70
2023/07/18 13:41:57;;;;;;;3.60;1.00;;;;;;;;;;5009297;28;20037;-72
2023/07/18 13:44:23;;;;;;;2.47;0.60;;;;;;;;;;5009602;28;20057;-72
2023/07/18 13:46:49;;;;;;;5.43;1.23;;;;;;;;;;5009109;28;20026;-73
2023/07/18 13:49:15;;;;;;;3.78;0.98;;;;;;;;;;5009023;28;20026;-72
2023/07/18 13:51:42;;;;;;;4.75;0.95;;;;;;;;;;5009217;28;20045;-71
2023/07/18 13:54:09;;;;;;;2.72;0.93;;;;;;;;;;4992130;28;20033;-72
2023/07/18 13:56:35;;;;;;;2.90;0.82;;;;;;;;;;5009000;28;20056;-72
2023/07/18 13:59:01;;;;;;;2.42;0.68;;;;;;;;;;4991663;28;20084;-72
2023/07/18 14:01:27;;;;;;;2.75;0.77;;;;;;;;;;5009131;28;20030;-72
2023/07/18 14:03:53;;;;;;;3.65;0.77;;;;;;;;;;5009069;28;20553;-73
2023/07/18 14:06:20;;;;;;;1.65;0.50;;;;;;;;;;4991362;28;20473;-72
2023/07/18 14:08:47;;;;;;;2.40;0.65;;;;;;;;;;5008665;28;20029;-71
2023/07/18 14:11:13;;;;;;;4.90;0.80;;;;;;;;;;5008065;28;20037;-72
2023/07/18 14:13:41;;;;;;;3.85;1.15;;;;;;;;;;5008277;28;20021;-71
2023/07/18 14:16:08;;;;;;;3.90;0.80;;;;;;;;;;5009010;28;20387;-71
2023/07/18 14:18:35;;;;;;;3.78;0.73;;;;;;;;;;4991278;28;20356;-72
2023/07/18 14:21:01;;;;;;;3.60;0.77;;;;;;;;;;5008406;28;20072;-72
2023/07/18 14:23:27;;;;;;;4.13;0.93;;;;;;;;;;5008395;28;20025;-72
2023/07/18 14:25:54;;;;;;;6.85;1.42;;;;;;;;;;5008656;28;20030;-72
2023/07/18 14:28:21;;;;;;;3.22;0.88;;;;;;;;;;5009147;28;20046;-71
2023/07/18 14:30:47;;;;;;;3.10;0.73;;;;;;;;;;5008647;28;20018;-71
2023/07/18 14:33:13;;;;;;;5.05;0.80;;;;;;;;;;5008554;28;20077;-73
2023/07/18 14:35:43;;;;;;;3.20;0.80;;;;;;;;;;5008130;28;20061;-72
2023/07/18 14:38:09;;;;;;;2.67;0.70;;;;;;;;;;5008545;28;20041;-70
2023/07/18 14:40:36;;;;;;;2.70;0.65;;;;;;;;;;5008099;28;20096;-72